»·PEaware :: N424CP KSNA-KSNA

N424CP :: KSNA-KSNA

FLIGHT INFORMATION

Flight Status: Arrived
Operator: Privately registered:
United States
More flights under this callsign
Pilot: Nathan A. (17242)
Aircraft: BEECH AIRCRAFT DEBONAIR BONANZA
(BE33)
More flights by this aircraft type
Origin: KSNA John Wayne-Orange Co
United States
Destination: KSNA John Wayne-Orange Co
United States
More flights between these airports :: More routes between these airports
Route: SLI
File this flight plan on PilotEdge
Remarks: I-1 rating
Altitude:
(Current/Filed)
3,000ft
Speed:
(Current/Filed)
140kts
Departed: 06-Oct-18 03:19 PM
Arrived: 06-Oct-18 03:39 PM
Distance/Time
Traveled:
0nm/0:20
Distance/Time
To Go:
Arrived

Flight Plot

Page will automatically refresh every two minutes.


Map Options




Map Legend


Flown Route
Filed Route
Departure Airport
Arrival Airport
Navaid (VOR, NDB)
Fix

Horizontal Profiles

Position Reports

Time Latitude Longitude Heading Altitude Ground
Speed
06-Oct-18 14:51 33.668087 -117.871026 239 59ft 0kts
06-Oct-18 14:52 33.668087 -117.871026 239 59ft 0kts
06-Oct-18 14:53 33.668087 -117.871026 239 59ft 0kts
06-Oct-18 14:59 33.668089 -117.871022 221 60ft 0kts
06-Oct-18 15:00 33.668089 -117.871022 221 60ft 0kts
06-Oct-18 15:01 33.668089 -117.871022 221 60ft 0kts
06-Oct-18 15:02 33.668089 -117.871022 221 60ft 0kts
06-Oct-18 15:03 33.668089 -117.871022 221 60ft 0kts
06-Oct-18 15:04 33.668089 -117.871022 221 60ft 0kts
06-Oct-18 15:05 33.668089 -117.871022 221 60ft 0kts
06-Oct-18 15:06 33.668089 -117.871022 221 60ft 0kts
06-Oct-18 15:07 33.668089 -117.871022 221 60ft 0kts
06-Oct-18 15:08 33.668089 -117.871022 221 60ft 0kts
06-Oct-18 15:09 33.668089 -117.871022 221 60ft 0kts
06-Oct-18 15:10 33.668089 -117.871022 221 60ft 0kts
06-Oct-18 15:11 33.668089 -117.871022 221 60ft 0kts
06-Oct-18 15:12 33.668089 -117.871022 221 60ft 0kts
06-Oct-18 15:13 33.668089 -117.871022 221 60ft 0kts
06-Oct-18 15:14 33.668602 -117.871465 42 59ft 6kts
06-Oct-18 15:15 33.671285 -117.868729 35 59ft 20kts
06-Oct-18 15:16 33.673672 -117.867086 306 59ft 9kts
06-Oct-18 15:17 33.676789 -117.865395 27 59ft 16kts
06-Oct-18 15:18 33.679956 -117.863608 299 59ft 0kts
06-Oct-18 15:19 33.679956 -117.863608 299 59ft 0kts
06-Oct-18 15:20 33.680113 -117.864025 260 59ft 9kts
06-Oct-18 15:21 33.665643 -117.876909 231 642ft 94kts
06-Oct-18 15:22 33.652151 -117.906975 236 1647ft 106kts
06-Oct-18 15:23 33.648419 -117.939258 312 2660ft 115kts
06-Oct-18 15:24 33.681792 -117.935001 23 3072ft 146kts
06-Oct-18 15:25 33.723853 -117.917610 19 3027ft 168kts
06-Oct-18 15:26 33.768836 -117.898913 19 3025ft 173kts
06-Oct-18 15:27 33.814153 -117.879619 19 3022ft 173kts
06-Oct-18 15:28 33.859252 -117.859753 19 3019ft 172kts
06-Oct-18 15:29 33.902076 -117.840369 19 3015ft 163kts
06-Oct-18 15:30 33.926185 -117.800958 90 3018ft 160kts
06-Oct-18 15:31 33.922142 -117.748754 129 3021ft 155kts
06-Oct-18 15:32 33.885425 -117.749725 201 3022ft 137kts
06-Oct-18 15:33 33.850333 -117.763773 200 2993ft 130kts
06-Oct-18 15:34 33.817205 -117.779660 206 2605ft 125kts
06-Oct-18 15:35 33.788278 -117.796104 205 1942ft 104kts
06-Oct-18 15:36 33.763278 -117.812361 205 1244ft 92kts
06-Oct-18 15:37 33.739678 -117.828481 207 1383ft 98kts
06-Oct-18 15:38 33.717716 -117.842472 203 1021ft 77kts
06-Oct-18 15:39 33.699131 -117.853968 203 495ft 73kts
06-Oct-18 15:40 33.681665 -117.865049 204 91ft 65kts
06-Oct-18 15:41 33.671480 -117.871514 206 59ft 28kts
06-Oct-18 15:42 33.669232 -117.871716 135 59ft 1kts
06-Oct-18 15:43 33.668063 -117.871068 213 59ft 0kts
06-Oct-18 15:44 33.668063 -117.871068 213 59ft 0kts
06-Oct-18 15:45 33.668081 -117.871057 297 59ft 0kts
06-Oct-18 15:46 33.668068 -117.871023 329 59ft 0kts
06-Oct-18 15:47 33.667950 -117.871137 33 59ft 0kts
06-Oct-18 15:48 33.667950 -117.871137 33 59ft 0kts

Navigation Log

Ident Type
1. KSNA Airport
2. SLI Navaid
3. KSNA Airport